createdAt,value
2022-12-09T00:00:09.077Z,18.27
2022-12-09T00:02:36.305Z,19.63
2022-12-09T00:05:04.021Z,18.00
2022-12-09T00:07:30.977Z,20.27
2022-12-09T00:09:57.875Z,18.73
2022-12-09T00:12:24.657Z,14.77
2022-12-09T00:14:51.341Z,16.67
2022-12-09T00:17:18.196Z,13.77
2022-12-09T00:19:46.508Z,14.50
2022-12-09T00:22:23.066Z,16.26
2022-12-09T00:24:50.952Z,16.27
2022-12-09T00:27:17.744Z,17.67
2022-12-09T00:29:44.613Z,15.63
2022-12-09T00:32:11.559Z,19.23
2022-12-09T00:34:38.557Z,17.20
2022-12-09T00:37:05.414Z,16.33
2022-12-09T00:39:32.216Z,16.87
2022-12-09T00:41:58.999Z,15.00
2022-12-09T00:44:26.097Z,16.60
2022-12-09T00:46:52.880Z,17.13
2022-12-09T00:49:19.705Z,18.57
2022-12-09T00:51:46.817Z,12.60
2022-12-09T00:54:13.749Z,16.83
2022-12-09T00:56:40.549Z,17.07
2022-12-09T00:59:07.530Z,17.33
2022-12-09T01:01:34.563Z,15.93
2022-12-09T01:04:02.577Z,18.60
2022-12-09T01:06:29.950Z,15.73
2022-12-09T01:08:56.793Z,16.57
2022-12-09T01:11:28.944Z,20.80
2022-12-09T01:14:01.221Z,16.13
2022-12-09T01:16:32.399Z,18.90
2022-12-09T01:19:02.499Z,14.53
2022-12-09T01:21:30.741Z,16.73
2022-12-09T01:23:57.572Z,18.03
2022-12-09T01:26:24.536Z,13.87
2022-12-09T01:28:52.940Z,17.00
2022-12-09T01:31:24.938Z,15.83
2022-12-09T01:33:54.745Z,15.33
2022-12-09T01:36:26.790Z,15.73
2022-12-09T01:38:54.680Z,19.03
2022-12-09T01:41:22.113Z,17.23
2022-12-09T01:44:20.766Z,14.63
2022-12-09T01:46:49.293Z,19.70
2022-12-09T01:49:43.208Z,18.37
2022-12-09T01:52:18.493Z,14.27
2022-12-09T01:54:50.146Z,14.77
2022-12-09T01:57:17.538Z,17.97
2022-12-09T01:59:46.018Z,17.10
2022-12-09T02:02:18.161Z,17.73
2022-12-09T02:04:48.971Z,17.27
2022-12-09T02:07:15.819Z,17.33
2022-12-09T02:09:43.756Z,16.77
2022-12-09T02:12:30.558Z,16.10
2022-12-09T02:15:18.002Z,17.23
2022-12-09T02:18:12.605Z,16.07
2022-12-09T02:21:08.877Z,15.33
2022-12-09T02:23:41.577Z,17.73
2022-12-09T02:26:35.748Z,14.00
2022-12-09T02:29:51.174Z,18.90
2022-12-09T02:32:38.408Z,15.80
2022-12-09T02:35:58.615Z,20.40
2022-12-09T02:38:32.791Z,20.53
2022-12-09T02:41:13.310Z,15.00
2022-12-09T02:43:50.274Z,16.13
2022-12-09T02:46:20.766Z,15.97
2022-12-09T02:48:59.528Z,18.40
2022-12-09T02:51:33.091Z,16.53
2022-12-09T02:54:09.399Z,12.97
2022-12-09T02:56:37.558Z,18.53
2022-12-09T02:59:04.386Z,15.60
2022-12-09T03:01:49.051Z,15.43
2022-12-09T03:04:22.687Z,16.43
2022-12-09T03:06:56.650Z,15.60
2022-12-09T03:09:34.848Z,16.63
2022-12-09T03:12:08.893Z,16.13
2022-12-09T03:14:43.790Z,13.33
2022-12-09T03:17:33.543Z,18.57
2022-12-09T03:20:17.359Z,16.83
2022-12-09T03:22:47.097Z,19.20
2022-12-09T03:25:43.962Z,14.77
2022-12-09T03:28:22.947Z,14.23
2022-12-09T03:30:53.421Z,14.30
2022-12-09T03:33:24.292Z,21.60
2022-12-09T03:35:56.629Z,23.27
2022-12-09T03:38:28.844Z,16.77
2022-12-09T03:41:07.328Z,14.23
2022-12-09T03:43:41.279Z,17.13
2022-12-09T03:46:08.372Z,15.17
2022-12-09T03:48:36.337Z,16.00
2022-12-09T03:51:12.737Z,17.30
2022-12-09T03:53:48.802Z,16.70
2022-12-09T03:56:28.768Z,18.73
2022-12-09T03:58:59.021Z,17.33
2022-12-09T04:01:28.768Z,15.90
2022-12-09T04:03:57.303Z,15.40
2022-12-09T04:06:24.752Z,13.73
2022-12-09T04:08:52.029Z,16.00
2022-12-09T04:11:19.575Z,12.93
2022-12-09T04:13:46.825Z,15.43
2022-12-09T04:16:14.035Z,12.37
2022-12-09T04:18:40.917Z,15.90
2022-12-09T04:21:13.878Z,13.80
2022-12-09T04:23:43.268Z,13.37
2022-12-09T04:26:16.976Z,13.07
2022-12-09T04:28:44.162Z,17.93
2022-12-09T04:31:14.056Z,11.77
2022-12-09T04:33:41.889Z,16.03
2022-12-09T04:36:15.955Z,11.90
2022-12-09T04:38:44.197Z,10.30
2022-12-09T04:41:11.761Z,12.80
2022-12-09T04:43:39.504Z,16.63
2022-12-09T04:46:12.694Z,15.80
2022-12-09T04:48:39.875Z,9.77
2022-12-09T04:51:09.740Z,12.70
2022-12-09T04:53:37.556Z,11.10
2022-12-09T04:56:19.140Z,10.73
2022-12-09T04:58:47.165Z,11.23
2022-12-09T05:01:19.277Z,11.17
2022-12-09T05:03:54.187Z,8.90
2022-12-09T05:06:22.962Z,10.40
2022-12-09T05:08:50.724Z,14.07
2022-12-09T05:11:20.674Z,12.90
2022-12-09T05:13:48.083Z,10.83
2022-12-09T05:16:18.365Z,9.50
2022-12-09T05:18:47.480Z,9.77
2022-12-09T05:21:18.669Z,9.83
2022-12-09T05:23:45.777Z,10.40
2022-12-09T05:26:17.319Z,10.10
2022-12-09T05:28:44.512Z,10.93
2022-12-09T05:31:17.191Z,11.37
2022-12-09T05:33:45.838Z,13.93
2022-12-09T05:36:15.708Z,12.53
2022-12-09T05:38:42.563Z,11.70
2022-12-09T05:41:10.341Z,8.53
2022-12-09T05:43:37.693Z,9.07
2022-12-09T05:46:06.951Z,7.97
2022-12-09T05:48:34.546Z,10.27
2022-12-09T05:51:17.406Z,8.07
2022-12-09T05:53:44.503Z,7.93
2022-12-09T05:56:17.066Z,9.07
2022-12-09T05:58:44.406Z,10.17
2022-12-09T06:01:13.111Z,11.80
2022-12-09T06:03:40.799Z,8.37
2022-12-09T06:06:14.678Z,11.60
2022-12-09T06:08:43.702Z,10.47
2022-12-09T06:11:14.785Z,11.77
2022-12-09T06:13:42.445Z,8.63
2022-12-09T06:16:10.547Z,8.57
2022-12-09T06:18:38.619Z,10.43
2022-12-09T06:21:11.533Z,10.47
2022-12-09T06:23:43.754Z,11.67
2022-12-09T06:26:19.080Z,12.17
2022-12-09T06:28:46.299Z,15.20
2022-12-09T06:31:13.806Z,12.43
2022-12-09T06:33:58.506Z,13.53
2022-12-09T06:36:29.628Z,8.53
2022-12-09T06:39:04.490Z,9.83
2022-12-09T06:41:35.219Z,10.70
2022-12-09T06:44:02.777Z,9.70
2022-12-09T06:46:29.820Z,8.70
2022-12-09T06:48:57.032Z,10.80
2022-12-09T06:51:26.070Z,10.27
2022-12-09T06:53:54.406Z,8.90
2022-12-09T06:56:21.771Z,9.53
2022-12-09T06:58:49.124Z,13.77
2022-12-09T07:01:21.673Z,8.60
2022-12-09T07:03:52.432Z,11.57
2022-12-09T07:06:38.340Z,11.40
2022-12-09T07:09:16.588Z,9.93
2022-12-09T07:11:46.346Z,9.03
2022-12-09T07:14:15.445Z,7.77
2022-12-09T07:16:43.136Z,8.47
2022-12-09T07:19:23.112Z,8.00
2022-12-09T07:21:51.726Z,12.63
2022-12-09T07:24:20.194Z,11.30
2022-12-09T07:26:48.424Z,9.43
2022-12-09T07:29:16.568Z,10.43
2022-12-09T07:31:45.337Z,9.23
2022-12-09T07:34:12.689Z,9.13
2022-12-09T07:36:40.698Z,10.73
2022-12-09T07:39:13.369Z,8.33
2022-12-09T07:41:40.796Z,11.13
2022-12-09T07:44:08.019Z,11.10
2022-12-09T07:46:35.076Z,10.03
2022-12-09T07:49:04.609Z,11.37
2022-12-09T07:51:33.381Z,12.87
2022-12-09T07:54:00.442Z,9.13
2022-12-09T07:56:28.573Z,11.03
2022-12-09T07:58:57.305Z,9.83
2022-12-09T08:01:30.245Z,8.33
2022-12-09T08:03:58.177Z,9.03
2022-12-09T08:06:28.716Z,13.03
2022-12-09T08:09:07.211Z,9.50
2022-12-09T08:11:35.210Z,11.20
2022-12-09T08:14:12.260Z,10.63
2022-12-09T08:16:40.801Z,11.60
2022-12-09T08:19:08.173Z,11.83
2022-12-09T08:21:35.292Z,11.87
2022-12-09T08:24:08.772Z,13.57
2022-12-09T08:26:39.238Z,10.30
2022-12-09T08:29:14.225Z,15.97
2022-12-09T08:31:43.958Z,17.60
2022-12-09T08:34:11.991Z,14.73
2022-12-09T08:36:39.247Z,12.70
2022-12-09T08:39:06.945Z,12.07
2022-12-09T08:41:36.522Z,9.80
2022-12-09T08:44:19.439Z,12.80
2022-12-09T08:46:50.344Z,14.80
2022-12-09T08:49:22.074Z,16.20
2022-12-09T08:51:51.843Z,14.73
2022-12-09T08:54:19.806Z,14.47
2022-12-09T08:56:55.259Z,14.13
2022-12-09T08:59:23.060Z,15.97
2022-12-09T09:01:50.554Z,20.93
2022-12-09T09:04:20.895Z,13.73
2022-12-09T09:06:51.558Z,13.53
2022-12-09T09:09:21.503Z,12.17
2022-12-09T09:11:49.000Z,12.77
2022-12-09T09:14:16.670Z,14.33
2022-12-09T09:16:45.389Z,14.77
2022-12-09T09:19:21.753Z,14.40
2022-12-09T09:21:49.068Z,18.10
2022-12-09T09:24:19.929Z,16.70
2022-12-09T09:26:48.470Z,13.87
2022-12-09T09:29:19.006Z,14.50
2022-12-09T09:31:49.785Z,15.37
2022-12-09T09:34:19.011Z,15.23
2022-12-09T09:36:46.858Z,12.13
2022-12-09T09:39:13.918Z,13.43
2022-12-09T09:42:08.149Z,16.90
2022-12-09T09:44:45.463Z,15.27
2022-12-09T09:47:37.768Z,18.57
2022-12-09T09:50:30.932Z,16.63
2022-12-09T09:53:01.951Z,16.00
2022-12-09T09:55:47.460Z,18.20
2022-12-09T09:58:38.175Z,15.30
2022-12-09T10:01:13.763Z,13.30
2022-12-09T10:03:59.188Z,13.37
2022-12-09T10:06:43.701Z,14.17
2022-12-09T10:09:41.834Z,21.63
2022-12-09T10:12:27.062Z,17.40
2022-12-09T10:15:08.937Z,15.03
2022-12-09T10:17:59.596Z,16.87
2022-12-09T10:20:29.657Z,14.47
2022-12-09T10:23:15.781Z,15.50
2022-12-09T10:26:03.467Z,16.33
2022-12-09T10:28:36.504Z,16.63
2022-12-09T10:31:04.273Z,16.83
2022-12-09T10:33:39.147Z,19.43
2022-12-09T10:36:19.522Z,14.93
2022-12-09T10:38:46.752Z,16.23
2022-12-09T10:41:58.413Z,17.97
2022-12-09T10:44:27.685Z,13.23
2022-12-09T10:47:03.227Z,12.10
2022-12-09T10:49:32.179Z,14.33
2022-12-09T10:52:00.108Z,14.53
2022-12-09T10:54:37.938Z,11.90
2022-12-09T10:57:14.433Z,15.50
2022-12-09T10:59:56.778Z,13.47
2022-12-09T11:02:24.209Z,13.63
2022-12-09T11:04:52.286Z,16.63
2022-12-09T11:07:28.017Z,15.63
2022-12-09T11:09:57.930Z,18.70
2022-12-09T11:12:30.948Z,14.77
2022-12-09T11:15:26.437Z,14.10
2022-12-09T11:18:26.615Z,13.07
2022-12-09T11:21:07.408Z,13.77
2022-12-09T11:23:35.930Z,13.50
2022-12-09T11:26:07.049Z,12.50
2022-12-09T11:28:40.494Z,14.50
2022-12-09T11:31:33.310Z,13.93
2022-12-09T11:34:16.255Z,15.60
2022-12-09T11:36:51.554Z,13.03
2022-12-09T11:39:34.380Z,16.13
2022-12-09T11:42:19.412Z,15.17
2022-12-09T11:44:56.631Z,16.90
2022-12-09T11:47:57.350Z,22.13
2022-12-09T11:50:32.598Z,19.23
2022-12-09T11:53:11.960Z,15.23
2022-12-09T11:56:07.810Z,20.50
2022-12-09T11:58:45.085Z,18.90
2022-12-09T12:01:38.107Z,17.30
2022-12-09T12:04:13.137Z,16.47
2022-12-09T12:06:50.632Z,18.53
2022-12-09T12:09:35.994Z,17.67
2022-12-09T12:12:25.155Z,18.23
2022-12-09T12:14:53.398Z,18.33
2022-12-09T12:17:31.733Z,14.43
2022-12-09T12:19:58.821Z,18.37
2022-12-09T12:23:01.229Z,19.07
2022-12-09T12:25:51.257Z,19.93
2022-12-09T12:28:45.998Z,27.90
2022-12-09T12:31:52.685Z,25.80
2022-12-09T12:34:40.322Z,21.00
2022-12-09T12:37:39.059Z,22.47
2022-12-09T12:40:36.612Z,23.03
2022-12-09T12:44:00.681Z,26.47
2022-12-09T12:46:30.383Z,31.13
2022-12-09T12:49:34.180Z,24.70
2022-12-09T12:52:53.772Z,27.07
2022-12-09T12:55:51.576Z,23.90
2022-12-09T12:58:45.213Z,23.07
2022-12-09T13:01:33.312Z,21.50
2022-12-09T13:04:12.943Z,17.67
2022-12-09T13:07:11.383Z,22.60
2022-12-09T13:09:53.207Z,27.37
2022-12-09T13:12:46.592Z,31.40
2022-12-09T13:15:19.027Z,23.33
2022-12-09T13:17:48.612Z,20.23
2022-12-09T13:20:33.198Z,25.20
2022-12-09T13:23:30.549Z,19.67
2022-12-09T13:26:14.867Z,26.20
2022-12-09T13:29:15.096Z,20.10
2022-12-09T13:32:14.648Z,19.23
2022-12-09T13:34:51.315Z,18.10
2022-12-09T13:37:36.937Z,18.53
2022-12-09T13:40:38.715Z,18.33
2022-12-09T13:43:23.167Z,16.57
2022-12-09T13:45:57.606Z,23.23
2022-12-09T13:48:24.556Z,18.90
2022-12-09T13:50:59.279Z,17.07
2022-12-09T13:53:46.405Z,21.67
2022-12-09T13:56:16.271Z,20.77
2022-12-09T13:59:26.697Z,22.53
2022-12-09T14:02:12.649Z,20.50
2022-12-09T14:05:19.964Z,22.17
2022-12-09T14:08:20.255Z,25.27
2022-12-09T14:10:50.264Z,19.67
2022-12-09T14:13:33.144Z,19.27
2022-12-09T14:16:35.067Z,16.30
2022-12-09T14:19:25.136Z,19.50
2022-12-09T14:22:19.752Z,20.67
2022-12-09T14:24:51.772Z,13.50
2022-12-09T14:27:27.296Z,13.07
2022-12-09T14:30:30.730Z,16.23
2022-12-09T14:32:57.881Z,13.47
2022-12-09T14:35:46.411Z,17.03
2022-12-09T14:39:22.591Z,16.63
2022-12-09T14:42:01.519Z,17.33
2022-12-09T14:44:49.142Z,20.03
2022-12-09T14:47:28.772Z,18.77
2022-12-09T14:50:04.866Z,20.00
2022-12-09T14:52:34.628Z,19.73
2022-12-09T14:55:15.166Z,18.23
2022-12-09T14:57:47.697Z,18.97
2022-12-09T15:00:40.140Z,24.70
2022-12-09T15:03:43.088Z,15.80
2022-12-09T15:06:18.680Z,16.07
2022-12-09T15:08:46.753Z,15.57
2022-12-09T15:11:22.418Z,14.67
2022-12-09T15:13:52.551Z,16.93
2022-12-09T15:16:26.297Z,20.43
2022-12-09T15:18:54.456Z,19.23
2022-12-09T15:21:32.680Z,18.30
2022-12-09T15:24:00.873Z,22.70
2022-12-09T15:26:32.327Z,24.00
2022-12-09T15:29:00.951Z,23.60
2022-12-09T15:31:30.851Z,21.77
2022-12-09T15:34:07.583Z,24.37
2022-12-09T15:36:45.476Z,25.87
2022-12-09T15:39:23.463Z,26.13
2022-12-09T15:42:07.805Z,24.57
2022-12-09T15:44:58.985Z,27.70
2022-12-09T15:47:38.888Z,24.77
2022-12-09T15:50:23.202Z,23.87
2022-12-09T15:52:53.669Z,25.03
2022-12-09T15:55:52.035Z,22.60
2022-12-09T15:58:25.897Z,29.27
2022-12-09T16:00:54.269Z,16.87
2022-12-09T16:03:34.984Z,25.33
2022-12-09T16:06:07.489Z,21.63
2022-12-09T16:08:39.394Z,21.33
2022-12-09T16:11:07.129Z,23.70
2022-12-09T16:13:34.520Z,19.47
2022-12-09T16:16:25.068Z,18.73
2022-12-09T16:18:51.894Z,23.87
2022-12-09T16:21:33.905Z,23.50
2022-12-09T16:24:12.928Z,17.67
2022-12-09T16:26:47.408Z,21.87
2022-12-09T16:29:25.192Z,27.27
2022-12-09T16:32:34.172Z,65.23
2022-12-09T16:35:23.421Z,21.93
2022-12-09T16:37:56.148Z,22.53
2022-12-09T16:40:26.004Z,23.00
2022-12-09T16:43:14.717Z,23.13
2022-12-09T16:46:25.266Z,19.20
2022-12-09T16:48:51.950Z,19.63
2022-12-09T16:51:24.842Z,19.37
2022-12-09T16:53:53.596Z,19.33
2022-12-09T16:56:24.901Z,20.23
2022-12-09T16:58:53.063Z,15.93
2022-12-09T17:01:23.946Z,21.43
2022-12-09T17:04:01.583Z,18.17
2022-12-09T17:06:28.764Z,18.77
2022-12-09T17:08:55.480Z,19.30
2022-12-09T17:11:22.481Z,18.00
2022-12-09T17:13:50.090Z,20.90
2022-12-09T17:16:17.750Z,16.90
2022-12-09T17:18:44.661Z,15.83
2022-12-09T17:21:14.341Z,17.57
2022-12-09T17:23:41.746Z,17.13
2022-12-09T17:26:15.542Z,17.47
2022-12-09T17:28:44.623Z,18.63
2022-12-09T17:31:21.615Z,19.70
2022-12-09T17:33:49.346Z,25.90
2022-12-09T17:36:18.142Z,19.33
2022-12-09T17:38:44.911Z,19.67
2022-12-09T17:41:18.390Z,19.60
2022-12-09T17:43:45.332Z,17.80
2022-12-09T17:46:13.964Z,25.43
2022-12-09T17:48:41.957Z,20.67
2022-12-09T17:51:17.879Z,20.43
2022-12-09T17:53:46.057Z,16.13
2022-12-09T17:56:20.173Z,16.10
2022-12-09T17:59:04.716Z,20.03
2022-12-09T18:01:34.047Z,14.07
2022-12-09T18:04:07.722Z,17.23
2022-12-09T18:06:37.252Z,14.67
2022-12-09T18:09:07.322Z,18.73
2022-12-09T18:11:35.213Z,20.67
2022-12-09T18:14:02.934Z,14.67
2022-12-09T18:16:30.208Z,20.40
2022-12-09T18:19:11.012Z,18.83
2022-12-09T18:21:37.859Z,17.60
2022-12-09T18:24:05.077Z,16.33
2022-12-09T18:26:36.652Z,16.93
2022-12-09T18:29:06.611Z,23.50
2022-12-09T18:31:33.699Z,16.57
2022-12-09T18:34:00.474Z,16.53
2022-12-09T18:36:29.071Z,19.10
2022-12-09T18:38:57.829Z,19.37
2022-12-09T18:41:29.957Z,18.13
2022-12-09T18:44:00.994Z,19.30
2022-12-09T18:46:36.360Z,23.80
2022-12-09T18:49:19.520Z,22.70
2022-12-09T18:51:48.520Z,20.70
2022-12-09T18:54:23.336Z,22.17
2022-12-09T18:56:51.394Z,25.37
2022-12-09T18:59:19.746Z,23.97
2022-12-09T19:01:48.394Z,23.67
2022-12-09T19:04:21.530Z,26.17
2022-12-09T19:06:51.510Z,28.43
2022-12-09T19:09:29.985Z,22.83
2022-12-09T19:11:57.066Z,24.40
2022-12-09T19:14:24.789Z,28.33
2022-12-09T19:16:52.784Z,26.30
2022-12-09T19:19:25.029Z,22.30
2022-12-09T19:21:53.527Z,26.87
2022-12-09T19:24:26.471Z,26.33
2022-12-09T19:26:56.489Z,27.07
2022-12-09T19:29:24.771Z,22.67
2022-12-09T19:31:53.678Z,25.13
2022-12-09T19:34:29.713Z,26.50
2022-12-09T19:36:59.338Z,24.50
2022-12-09T19:39:30.350Z,27.37
2022-12-09T19:41:58.708Z,29.07
2022-12-09T19:44:52.588Z,23.63
2022-12-09T19:47:13.879Z,23.63
2022-12-09T19:49:42.049Z,22.03
2022-12-09T19:52:08.776Z,28.57
2022-12-09T19:54:35.604Z,26.37
2022-12-09T19:57:02.587Z,28.83
2022-12-09T19:59:29.503Z,25.90
2022-12-09T20:01:56.535Z,22.77
2022-12-09T20:04:48.069Z,23.93
2022-12-09T20:07:12.228Z,22.10
2022-12-09T20:09:39.860Z,24.27
2022-12-09T20:12:06.672Z,23.40
2022-12-09T20:14:33.752Z,24.27
2022-12-09T20:17:00.652Z,22.10
2022-12-09T20:19:27.735Z,24.80
2022-12-09T20:21:54.612Z,22.20
2022-12-09T20:24:21.347Z,21.23
2022-12-09T20:26:48.144Z,24.37
2022-12-09T20:29:14.835Z,22.90
2022-12-09T20:31:42.785Z,24.57
2022-12-09T20:34:15.991Z,22.97
2022-12-09T20:36:44.873Z,25.07
2022-12-09T20:39:17.980Z,22.17
2022-12-09T20:41:45.305Z,22.43
2022-12-09T20:44:13.951Z,18.07
2022-12-09T20:46:46.124Z,33.43
2022-12-09T20:49:12.828Z,22.47
2022-12-09T20:51:41.571Z,21.07
2022-12-09T20:54:10.081Z,22.33
2022-12-09T20:56:37.131Z,21.00
2022-12-09T20:59:04.879Z,25.93
2022-12-09T21:01:36.755Z,23.07
2022-12-09T21:04:06.651Z,26.77
2022-12-09T21:06:37.758Z,23.47
2022-12-09T21:09:17.529Z,23.50
2022-12-09T21:11:46.358Z,25.87
2022-12-09T21:14:14.461Z,23.30
2022-12-09T21:16:42.796Z,24.00
2022-12-09T21:19:15.188Z,21.07
2022-12-09T21:21:48.402Z,24.07
2022-12-09T21:24:16.111Z,23.50
2022-12-09T21:26:43.369Z,27.17
2022-12-09T21:29:11.959Z,23.87
2022-12-09T21:31:41.038Z,21.00
2022-12-09T21:34:09.817Z,21.97
2022-12-09T21:36:42.489Z,27.13
2022-12-09T21:39:13.693Z,23.93
2022-12-09T21:41:41.705Z,24.57
2022-12-09T21:44:14.335Z,28.90
2022-12-09T21:46:41.505Z,28.20
2022-12-09T21:49:08.252Z,26.03
2022-12-09T21:51:35.500Z,23.70
2022-12-09T21:54:03.129Z,29.73
2022-12-09T21:56:34.969Z,26.50
2022-12-09T21:59:03.707Z,37.23
2022-12-09T22:01:35.159Z,34.73
2022-12-09T22:04:04.575Z,32.40
2022-12-09T22:06:31.383Z,29.23
2022-12-09T22:09:00.296Z,24.90
2022-12-09T22:11:33.593Z,27.90
2022-12-09T22:14:01.560Z,25.17
2022-12-09T22:16:35.578Z,26.13
2022-12-09T22:19:04.965Z,26.63
2022-12-09T22:21:33.639Z,29.13
2022-12-09T22:24:04.872Z,34.00
2022-12-09T22:26:32.183Z,30.30
2022-12-09T22:29:02.003Z,28.23
2022-12-09T22:31:36.696Z,30.93
2022-12-09T22:34:12.643Z,36.70
2022-12-09T22:36:41.078Z,33.40
2022-12-09T22:39:13.186Z,38.13
2022-12-09T22:41:40.414Z,31.73
2022-12-09T22:44:07.389Z,34.77
2022-12-09T22:46:34.602Z,30.27
2022-12-09T22:49:05.939Z,25.83
2022-12-09T22:51:36.365Z,30.70
2022-12-09T22:54:07.981Z,26.27
2022-12-09T22:56:38.096Z,27.77
2022-12-09T22:59:05.729Z,31.17
2022-12-09T23:01:37.148Z,32.00
2022-12-09T23:04:07.064Z,33.73
2022-12-09T23:06:37.165Z,31.87
2022-12-09T23:09:05.655Z,29.30
2022-12-09T23:11:32.811Z,32.23
2022-12-09T23:14:00.156Z,33.53
2022-12-09T23:16:28.223Z,31.57
2022-12-09T23:18:57.573Z,31.03
2022-12-09T23:21:32.505Z,29.83
2022-12-09T23:24:04.259Z,30.30
2022-12-09T23:26:36.780Z,27.27
2022-12-09T23:29:06.922Z,27.30
2022-12-09T23:31:38.191Z,36.17
2022-12-09T23:34:07.535Z,28.53
2022-12-09T23:36:39.268Z,28.87
2022-12-09T23:39:11.477Z,30.77
2022-12-09T23:41:40.990Z,30.57
2022-12-09T23:44:17.665Z,29.57
2022-12-09T23:46:45.234Z,34.37
2022-12-09T23:49:12.480Z,35.03
2022-12-09T23:51:43.632Z,33.23
2022-12-09T23:54:11.778Z,29.23
2022-12-09T23:56:43.953Z,32.40
2022-12-09T23:59:13.609Z,32.23
